Time;durP1;ratioP1;P1;durP2;ratioP2;P2;SDS_P1;SDS_P2;PMS_P1;PMS_P2;Temp;Humidity;BMP_temperature;BMP_pressure;BME280_temperature;BME280_humidity;BME280_pressure;Samples;Min_cycle;Max_cycle;Signal;HPM_P1;HPM_P2
2021/10/10 00:01:40;;;;;;;13.45;8.10;;;8.40;99.90;;;;;;5086955;28;20560;-77
2021/10/10 00:04:08;;;;;;;13.32;8.23;;;8.40;99.90;;;;;;5079651;28;20127;-79
2021/10/10 00:06:37;;;;;;;11.55;8.10;;;8.40;99.90;;;;;;5087365;28;20099;-79
2021/10/10 00:09:05;;;;;;;12.68;7.82;;;8.40;99.90;;;;;;5086992;28;20476;-80
2021/10/10 00:11:32;;;;;;;14.57;7.80;;;8.40;99.90;;;;;;5086977;28;20130;-79
2021/10/10 00:13:59;;;;;;;12.75;7.63;;;8.30;99.90;;;;;;5087198;28;20119;-80
2021/10/10 00:16:26;;;;;;;13.23;7.85;;;8.30;99.90;;;;;;5080287;28;20078;-79
2021/10/10 00:18:53;;;;;;;12.45;7.95;;;8.30;99.90;;;;;;5086744;28;20131;-79
2021/10/10 00:21:20;;;;;;;14.18;8.70;;;8.30;99.90;;;;;;5084694;28;20131;-80
2021/10/10 00:23:49;;;;;;;12.80;8.32;;;8.20;99.90;;;;;;5083477;28;20123;-78
2021/10/10 00:26:16;;;;;;;14.85;8.45;;;8.20;99.90;;;;;;5084297;28;20122;-79
2021/10/10 00:28:43;;;;;;;12.85;8.18;;;8.20;99.90;;;;;;5083257;28;20127;-78
2021/10/10 00:31:10;;;;;;;13.52;8.45;;;8.20;99.90;;;;;;5083005;28;20048;-79
2021/10/10 00:33:37;;;;;;;16.00;8.35;;;8.20;99.90;;;;;;5090873;28;20120;-79
2021/10/10 00:36:05;;;;;;;12.70;8.18;;;8.20;99.90;;;;;;5083076;28;20458;-81
2021/10/10 00:38:32;;;;;;;13.63;8.88;;;8.10;99.90;;;;;;5086196;28;20553;-78
2021/10/10 00:41:00;;;;;;;11.98;8.40;;;8.20;99.90;;;;;;5086480;28;20086;-79
2021/10/10 00:43:27;;;;;;;12.63;8.13;;;8.10;99.90;;;;;;5083759;28;20443;-78
2021/10/10 00:45:54;;;;;;;15.30;8.60;;;8.10;99.90;;;;;;5081483;28;20119;-78
2021/10/10 00:48:21;;;;;;;14.05;8.13;;;8.10;99.90;;;;;;5084359;28;20473;-80
2021/10/10 00:50:49;;;;;;;13.30;8.00;;;8.00;99.90;;;;;;5082611;28;20131;-78
2021/10/10 00:53:19;;;;;;;14.73;8.48;;;8.00;99.90;;;;;;5083374;28;20131;-80
2021/10/10 00:55:50;;;;;;;13.32;8.63;;;8.00;99.90;;;;;;5088295;28;20135;-79
2021/10/10 00:58:22;;;;;;;14.30;8.98;;;8.00;99.90;;;;;;5083725;28;20127;-80
2021/10/10 01:00:51;;;;;;;13.15;8.23;;;7.90;99.90;;;;;;5086274;28;20067;-81
2021/10/10 01:03:18;;;;;;;12.88;8.55;;;7.90;99.90;;;;;;5084670;28;20135;-80
2021/10/10 01:05:45;;;;;;;13.30;8.55;;;7.90;99.90;;;;;;5082444;28;20123;-80
2021/10/10 01:08:14;;;;;;;12.13;7.75;;;7.90;99.90;;;;;;5082406;28;20103;-78
2021/10/10 01:10:41;;;;;;;14.68;8.43;;;7.80;99.90;;;;;;5085440;28;20045;-79
2021/10/10 01:13:09;;;;;;;13.48;8.73;;;7.80;99.90;;;;;;5090189;28;20126;-81
2021/10/10 01:15:37;;;;;;;15.05;8.75;;;7.80;99.90;;;;;;5090974;28;20139;-78
2021/10/10 01:18:04;;;;;;;13.05;8.20;;;7.70;99.90;;;;;;5083145;28;20123;-80
2021/10/10 01:20:44;;;;;;;14.38;8.60;;;7.80;99.90;;;;;;5083721;28;20139;-77
2021/10/10 01:23:11;;;;;;;13.90;8.20;;;7.70;99.90;;;;;;5085535;28;20040;-81
2021/10/10 01:25:38;;;;;;;14.20;8.73;;;7.70;99.90;;;;;;5082101;28;20469;-77
2021/10/10 01:28:06;;;;;;;14.93;8.52;;;7.70;99.90;;;;;;5082160;28;20467;-80
2021/10/10 01:30:34;;;;;;;14.90;8.35;;;7.60;99.90;;;;;;5085059;28;20446;-80
2021/10/10 01:33:02;;;;;;;13.80;8.32;;;7.60;99.90;;;;;;5084618;28;20564;-79
2021/10/10 01:35:29;;;;;;;13.70;8.48;;;7.50;99.90;;;;;;5082253;28;20126;-79
2021/10/10 01:37:57;;;;;;;14.23;9.02;;;7.50;99.90;;;;;;5080967;28;20128;-81
2021/10/10 01:40:24;;;;;;;15.55;8.77;;;7.40;99.70;;;;;;5083509;28;20143;-77
2021/10/10 01:42:53;;;;;;;15.35;9.30;;;7.20;99.80;;;;;;5081407;28;20131;-80
2021/10/10 01:45:24;;;;;;;15.75;9.00;;;7.00;99.90;;;;;;5082997;28;20120;-79
2021/10/10 01:47:51;;;;;;;15.48;9.38;;;6.90;99.90;;;;;;5085067;28;20139;-80
2021/10/10 01:50:18;;;;;;;16.77;9.60;;;6.90;99.90;;;;;;5083753;28;20147;-77
2021/10/10 01:52:49;;;;;;;15.98;9.93;;;6.80;99.90;;;;;;5085174;28;20480;-78
2021/10/10 01:55:19;;;;;;;14.93;9.48;;;6.80;99.90;;;;;;5083945;28;20051;-78
2021/10/10 01:57:46;;;;;;;15.27;9.40;;;6.80;99.90;;;;;;5081466;28;20131;-77
2021/10/10 02:00:14;;;;;;;14.80;9.30;;;6.80;99.90;;;;;;5081675;28;20442;-78
2021/10/10 02:02:41;;;;;;;15.35;9.23;;;6.80;99.90;;;;;;5087915;28;20130;-79
2021/10/10 02:05:10;;;;;;;14.45;9.23;;;6.80;99.90;;;;;;5081084;28;20149;-78
2021/10/10 02:07:39;;;;;;;14.60;8.98;;;6.80;99.90;;;;;;5081409;28;20127;-77
2021/10/10 02:10:08;;;;;;;13.73;8.82;;;6.90;99.90;;;;;;5081464;28;20120;-80
2021/10/10 02:12:38;;;;;;;14.20;9.23;;;6.90;99.90;;;;;;5084670;28;20142;-80
2021/10/10 02:15:07;;;;;;;13.07;8.88;;;7.00;99.90;;;;;;5084566;28;20134;-81
2021/10/10 02:17:34;;;;;;;14.18;9.27;;;7.00;99.90;;;;;;5084560;28;20051;-81
2021/10/10 02:20:02;;;;;;;17.08;9.32;;;7.00;99.90;;;;;;5084780;28;20115;-76
2021/10/10 02:22:29;;;;;;;12.98;8.48;;;7.00;99.90;;;;;;5081755;28;20588;-80
2021/10/10 02:24:56;;;;;;;12.65;8.10;;;7.00;99.90;;;;;;5081181;28;20463;-78
2021/10/10 02:27:23;;;;;;;13.25;8.43;;;7.00;99.90;;;;;;5082684;28;20140;-79
2021/10/10 02:29:52;;;;;;;13.63;7.75;;;7.10;99.90;;;;;;5084468;28;20442;-81
2021/10/10 02:32:19;;;;;;;13.02;7.75;;;7.00;99.90;;;;;;5077428;28;20127;-79
2021/10/10 02:34:46;;;;;;;13.75;8.07;;;7.00;99.90;;;;;;5084509;28;20502;-80
2021/10/10 02:37:13;;;;;;;12.48;7.63;;;7.00;99.90;;;;;;5076689;28;20469;-80
2021/10/10 02:39:41;;;;;;;13.52;8.90;;;7.00;99.90;;;;;;5084221;28;20131;-80
2021/10/10 02:42:08;;;;;;;14.27;8.23;;;7.00;99.90;;;;;;5084024;28;20140;-80
2021/10/10 02:44:35;;;;;;;13.70;7.78;;;6.90;99.90;;;;;;5083947;28;20131;-78
2021/10/10 02:47:04;;;;;;;14.13;8.07;;;6.90;99.90;;;;;;5085176;28;20128;-80
2021/10/10 02:49:31;;;;;;;13.48;8.18;;;6.90;99.90;;;;;;5083492;28;20143;-80
2021/10/10 02:51:58;;;;;;;14.85;8.07;;;6.90;99.90;;;;;;5084326;28;20104;-79
2021/10/10 02:54:25;;;;;;;16.00;9.05;;;6.90;99.90;;;;;;5092349;28;20140;-79
2021/10/10 02:56:52;;;;;;;13.85;8.43;;;6.90;99.90;;;;;;5092463;28;20130;-81
2021/10/10 02:59:19;;;;;;;13.48;8.15;;;6.90;99.90;;;;;;5083817;28;20131;-77
2021/10/10 03:01:46;;;;;;;14.52;8.20;;;6.90;99.90;;;;;;5083504;28;20134;-81
2021/10/10 03:04:15;;;;;;;13.52;8.25;;;6.90;99.90;;;;;;5088480;28;20119;-79
2021/10/10 03:06:42;;;;;;;14.48;7.95;;;6.80;99.90;;;;;;5077958;28;20123;-77
2021/10/10 03:09:09;;;;;;;14.73;8.10;;;6.70;99.90;;;;;;5076283;28;20468;-77
2021/10/10 03:11:36;;;;;;;13.65;8.20;;;6.60;99.90;;;;;;5077133;28;20123;-76
2021/10/10 03:14:03;;;;;;;16.88;9.30;;;6.60;99.90;;;;;;5077007;28;20554;-80
2021/10/10 03:16:31;;;;;;;14.25;9.10;;;6.50;99.90;;;;;;5079847;28;20135;-77
2021/10/10 03:18:58;;;;;;;16.85;9.43;;;6.40;99.90;;;;;;5074567;28;20132;-78
2021/10/10 03:21:26;;;;;;;17.25;9.55;;;6.20;99.90;;;;;;5078895;28;20132;-81
2021/10/10 03:23:54;;;;;;;15.50;9.40;;;6.10;99.90;;;;;;5084599;28;20525;-79
2021/10/10 03:26:21;;;;;;;16.55;9.20;;;6.00;99.90;;;;;;5078705;28;20059;-81
2021/10/10 03:28:48;;;;;;;17.42;8.90;;;6.00;99.90;;;;;;5074596;28;20127;-78
2021/10/10 03:31:16;;;;;;;14.00;9.05;;;6.00;99.90;;;;;;5079290;28;20129;-78
2021/10/10 03:33:43;;;;;;;15.63;9.38;;;6.00;99.90;;;;;;5076899;28;20123;-80
2021/10/10 03:36:10;;;;;;;14.45;8.63;;;6.00;99.90;;;;;;5077038;28;20143;-78
2021/10/10 03:38:39;;;;;;;14.85;8.85;;;6.00;99.90;;;;;;5077187;28;20136;-78
2021/10/10 03:41:06;;;;;;;13.82;8.55;;;6.00;99.90;;;;;;5077041;28;20135;-78
2021/10/10 03:43:34;;;;;;;15.70;8.70;;;6.00;99.90;;;;;;5079832;28;20052;-80
2021/10/10 03:46:01;;;;;;;15.68;9.23;;;6.10;99.90;;;;;;5081441;28;20128;-79
2021/10/10 03:48:28;;;;;;;14.75;9.32;;;6.10;99.90;;;;;;5078912;28;20136;-79
2021/10/10 03:50:55;;;;;;;13.90;9.05;;;6.10;99.90;;;;;;5080084;28;20130;-78
2021/10/10 03:53:30;;;;;;;15.23;9.02;;;6.00;99.90;;;;;;5078544;28;20134;-81
2021/10/10 03:55:58;;;;;;;14.18;8.77;;;5.90;99.90;;;;;;5078238;28;20064;-77
2021/10/10 03:58:25;;;;;;;14.20;8.43;;;5.80;99.90;;;;;;5082315;28;20512;-77
2021/10/10 04:00:52;;;;;;;14.55;8.98;;;5.70;99.90;;;;;;5082143;28;20541;-77
2021/10/10 04:03:19;;;;;;;15.32;9.00;;;5.80;99.90;;;;;;5088476;28;20135;-78
2021/10/10 04:05:47;;;;;;;13.77;8.57;;;5.70;99.90;;;;;;5083783;28;20064;-78
2021/10/10 04:08:15;;;;;;;14.75;8.07;;;5.70;99.90;;;;;;5083891;28;20045;-78
2021/10/10 04:10:42;;;;;;;14.95;8.52;;;5.80;99.90;;;;;;5087080;28;20040;-77
2021/10/10 04:13:10;;;;;;;13.35;8.65;;;5.80;99.90;;;;;;5086681;28;20127;-79
2021/10/10 04:15:37;;;;;;;12.85;7.88;;;5.80;99.90;;;;;;5083322;28;20123;-79
2021/10/10 04:18:05;;;;;;;14.40;8.55;;;5.80;99.90;;;;;;5083231;28;20136;-79
2021/10/10 04:20:33;;;;;;;14.02;7.88;;;5.80;99.90;;;;;;5086558;28;20039;-79
2021/10/10 04:23:00;;;;;;;14.45;8.63;;;5.90;99.90;;;;;;5080038;28;20127;-81
2021/10/10 04:25:27;;;;;;;15.27;8.80;;;5.90;99.90;;;;;;5083528;28;20122;-81
2021/10/10 04:27:54;;;;;;;14.32;8.18;;;5.90;99.90;;;;;;5082952;28;20577;-79
2021/10/10 04:30:22;;;;;;;13.07;7.55;;;6.00;99.90;;;;;;5089714;28;20068;-77
2021/10/10 04:32:49;;;;;;;13.68;7.85;;;5.90;99.90;;;;;;5082997;28;20135;-79
2021/10/10 04:35:17;;;;;;;14.70;8.00;;;6.00;99.90;;;;;;5083737;28;20127;-81
2021/10/10 04:37:44;;;;;;;14.07;8.05;;;5.90;99.90;;;;;;5086493;28;20040;-79
2021/10/10 04:40:13;;;;;;;13.85;8.07;;;5.90;99.90;;;;;;5085985;28;20044;-79
2021/10/10 04:42:40;;;;;;;12.90;7.70;;;5.90;99.90;;;;;;5081798;28;20055;-78
2021/10/10 04:45:08;;;;;;;13.48;8.13;;;5.90;99.90;;;;;;5082386;28;20131;-80
2021/10/10 04:47:37;;;;;;;13.55;8.27;;;5.90;99.90;;;;;;5090546;28;20143;-80
2021/10/10 04:50:05;;;;;;;15.02;8.82;;;5.90;99.90;;;;;;5086368;28;20123;-80
2021/10/10 04:52:32;;;;;;;25.65;12.60;;;5.90;99.90;;;;;;5082864;28;20075;-78
2021/10/10 04:54:59;;;;;;;16.42;10.10;;;5.90;99.90;;;;;;5082479;28;20131;-80
2021/10/10 04:57:27;;;;;;;14.43;8.23;;;5.80;99.90;;;;;;5084463;28;20557;-80
2021/10/10 04:59:54;;;;;;;14.45;8.25;;;5.90;99.90;;;;;;5086191;28;20040;-78
2021/10/10 05:02:24;;;;;;;14.18;7.90;;;5.80;99.90;;;;;;5084035;28;20044;-79
2021/10/10 05:04:53;;;;;;;12.57;7.80;;;5.80;99.90;;;;;;5082518;28;20140;-79
2021/10/10 05:07:20;;;;;;;13.32;8.00;;;5.90;99.90;;;;;;5083585;28;20464;-80
2021/10/10 05:09:48;;;;;;;14.18;8.32;;;5.80;99.90;;;;;;5085780;28;20051;-79
2021/10/10 05:12:15;;;;;;;15.70;8.48;;;5.80;99.90;;;;;;5084529;28;20131;-80
2021/10/10 05:14:43;;;;;;;14.25;8.52;;;5.70;99.90;;;;;;5082216;28;20461;-81
2021/10/10 05:17:10;;;;;;;13.40;8.15;;;5.70;99.90;;;;;;5082084;28;20128;-81
2021/10/10 05:19:37;;;;;;;15.35;8.23;;;5.70;99.90;;;;;;5077969;28;20078;-81
2021/10/10 05:22:06;;;;;;;15.43;8.48;;;5.70;99.90;;;;;;5085333;28;20134;-79
2021/10/10 05:24:33;;;;;;;15.48;8.45;;;5.60;99.90;;;;;;5083733;28;20127;-79
2021/10/10 05:27:01;;;;;;;13.80;8.07;;;5.50;99.90;;;;;;5090111;28;20123;-81
2021/10/10 05:29:28;;;;;;;15.07;9.02;;;5.40;99.90;;;;;;5086226;28;20559;-77
2021/10/10 05:31:56;;;;;;;12.98;7.50;;;5.30;99.90;;;;;;5092717;28;20123;-77
2021/10/10 05:34:23;;;;;;;13.98;8.15;;;5.20;99.90;;;;;;5093120;28;20127;-77
2021/10/10 05:36:51;;;;;;;13.68;8.00;;;5.20;99.90;;;;;;5092622;28;20147;-78
2021/10/10 05:39:19;;;;;;;12.77;7.57;;;5.10;99.90;;;;;;5093191;28;20549;-78
2021/10/10 05:41:46;;;;;;;13.20;8.18;;;5.10;99.90;;;;;;5093383;28;20545;-79
2021/10/10 05:44:14;;;;;;;14.15;7.95;;;5.10;99.90;;;;;;5087827;28;20127;-76
2021/10/10 05:46:41;;;;;;;13.48;7.97;;;5.10;99.90;;;;;;5086690;28;20123;-77
2021/10/10 05:49:08;;;;;;;12.77;7.38;;;5.20;99.90;;;;;;5092647;28;20119;-79
2021/10/10 05:51:36;;;;;;;13.35;7.60;;;5.20;99.90;;;;;;5093438;28;20131;-80
2021/10/10 05:54:04;;;;;;;13.00;7.82;;;5.20;99.90;;;;;;5084705;28;20072;-77
2021/10/10 05:56:33;;;;;;;14.27;8.20;;;5.30;99.90;;;;;;5089499;28;20048;-80
2021/10/10 05:59:04;;;;;;;14.85;8.38;;;5.30;99.90;;;;;;5085032;28;20557;-78
2021/10/10 06:01:31;;;;;;;14.38;8.38;;;5.30;99.90;;;;;;5089146;28;20048;-78
2021/10/10 06:03:58;;;;;;;13.68;7.95;;;5.30;99.90;;;;;;5092085;28;20127;-78
2021/10/10 06:06:25;;;;;;;14.65;9.00;;;5.30;99.90;;;;;;5091620;28;20142;-79
2021/10/10 06:08:53;;;;;;;13.77;7.60;;;5.20;99.80;;;;;;5091536;28;20147;-80
2021/10/10 06:11:20;;;;;;;11.75;7.15;;;5.10;99.90;;;;;;5079239;28;20590;-80
2021/10/10 06:13:49;;;;;;;13.85;8.27;;;5.00;99.90;;;;;;5084439;28;20095;-79
2021/10/10 06:16:16;;;;;;;13.20;7.50;;;4.90;99.90;;;;;;5083353;28;20127;-80
2021/10/10 06:18:44;;;;;;;13.77;8.15;;;4.80;99.90;;;;;;5080450;28;20076;-78
2021/10/10 06:21:11;;;;;;;13.63;8.27;;;4.70;99.90;;;;;;5089215;28;20071;-79
2021/10/10 06:23:38;;;;;;;13.20;7.82;;;4.60;99.90;;;;;;5080134;28;20043;-80
2021/10/10 06:26:05;;;;;;;14.00;7.97;;;4.50;99.90;;;;;;5084439;28;20123;-79
2021/10/10 06:28:32;;;;;;;12.07;7.03;;;4.50;99.90;;;;;;5084020;28;20135;-79
2021/10/10 06:31:01;;;;;;;12.02;7.78;;;4.40;99.90;;;;;;5082310;28;20067;-80
2021/10/10 06:33:28;;;;;;;11.00;6.90;;;4.40;99.90;;;;;;5081507;28;20131;-78
2021/10/10 06:35:55;;;;;;;10.73;6.88;;;4.40;99.90;;;;;;5079952;28;20076;-79
2021/10/10 06:38:22;;;;;;;11.95;7.40;;;4.50;99.90;;;;;;5081764;28;20075;-78
2021/10/10 06:40:49;;;;;;;12.82;7.68;;;4.50;99.90;;;;;;5088589;28;20123;-77
2021/10/10 06:43:16;;;;;;;10.88;7.50;;;4.60;99.90;;;;;;5088562;28;20582;-77
2021/10/10 06:45:43;;;;;;;10.80;7.20;;;4.70;99.90;;;;;;5092244;28;20128;-76
2021/10/10 06:48:11;;;;;;;11.70;7.22;;;4.70;99.90;;;;;;5090432;28;20135;-76
2021/10/10 06:50:38;;;;;;;13.38;7.78;;;4.80;99.90;;;;;;5091110;28;20132;-76
2021/10/10 06:53:05;;;;;;;10.88;7.63;;;4.90;99.90;;;;;;5092100;28;20464;-77
2021/10/10 06:55:33;;;;;;;12.45;7.30;;;5.00;99.90;;;;;;5089974;28;20123;-77
2021/10/10 06:58:00;;;;;;;13.77;7.97;;;5.10;99.90;;;;;;5088957;28;20521;-77
2021/10/10 07:00:28;;;;;;;14.18;8.63;;;5.20;99.90;;;;;;5086402;28;20484;-76
2021/10/10 07:02:55;;;;;;;13.13;8.57;;;5.30;99.90;;;;;;5087155;28;20127;-80
2021/10/10 07:05:26;;;;;;;14.90;8.85;;;5.40;99.90;;;;;;5090858;28;20059;-78
2021/10/10 07:07:53;;;;;;;12.63;8.38;;;5.40;99.90;;;;;;5088805;28;20068;-80
2021/10/10 07:10:20;;;;;;;14.82;8.40;;;5.50;99.90;;;;;;5080317;28;20571;-80
2021/10/10 07:12:47;;;;;;;12.38;8.50;;;5.50;99.90;;;;;;5083871;28;20135;-79
2021/10/10 07:15:14;;;;;;;11.57;7.22;;;5.50;99.90;;;;;;5081074;28;20139;-81
2021/10/10 07:17:42;;;;;;;13.27;8.32;;;5.50;99.90;;;;;;5086284;28;20471;-79
2021/10/10 07:20:13;;;;;;;12.60;7.80;;;5.60;99.90;;;;;;5087351;28;20040;-80
2021/10/10 07:22:46;;;;;;;12.82;8.65;;;5.70;99.90;;;;;;5091086;28;20036;-80
2021/10/10 07:25:15;;;;;;;13.20;8.45;;;5.70;99.90;;;;;;5090027;28;20444;-81
2021/10/10 07:27:44;;;;;;;15.52;8.65;;;5.70;99.90;;;;;;5091729;28;20044;-79
2021/10/10 07:30:14;;;;;;;13.73;7.82;;;5.70;99.90;;;;;;5091725;28;20068;-78
2021/10/10 07:32:42;;;;;;;12.18;7.72;;;5.70;99.90;;;;;;5095648;28;20123;-79
2021/10/10 07:35:11;;;;;;;12.30;7.95;;;5.80;99.90;;;;;;5095037;28;20119;-78
2021/10/10 07:37:38;;;;;;;11.25;7.28;;;5.80;99.90;;;;;;5084083;28;20401;-79
2021/10/10 07:40:09;;;;;;;11.57;7.47;;;5.80;99.90;;;;;;5079479;28;20080;-79
2021/10/10 07:42:36;;;;;;;13.35;8.05;;;5.90;99.90;;;;;;5085555;28;20063;-78
2021/10/10 07:45:09;;;;;;;13.80;8.65;;;6.00;99.90;;;;;;5083164;28;20131;-77
2021/10/10 07:47:47;;;;;;;13.95;8.30;;;6.00;99.90;;;;;;5089518;28;20048;-78
2021/10/10 07:50:15;;;;;;;14.75;9.98;;;6.10;99.90;;;;;;5082324;28;20074;-79
2021/10/10 07:52:42;;;;;;;23.50;14.05;;;6.10;99.90;;;;;;5087081;28;20051;-80
2021/10/10 07:55:11;;;;;;;18.38;11.15;;;6.20;99.90;;;;;;5084707;28;20053;-76
2021/10/10 07:57:39;;;;;;;16.48;10.50;;;6.20;99.90;;;;;;5077037;28;20123;-76
2021/10/10 08:00:09;;;;;;;17.52;10.75;;;6.30;99.90;;;;;;5083729;28;20075;-80
2021/10/10 08:02:53;;;;;;;16.35;10.23;;;6.30;99.90;;;;;;5083684;28;20048;-79
2021/10/10 08:05:22;;;;;;;16.27;10.47;;;6.40;99.90;;;;;;5076132;28;20139;-81
2021/10/10 08:07:50;;;;;;;19.45;11.18;;;6.40;99.90;;;;;;5097604;28;20405;-79
2021/10/10 08:10:19;;;;;;;16.65;11.20;;;6.50;99.90;;;;;;5094424;28;20569;-78
2021/10/10 08:12:47;;;;;;;19.10;10.60;;;6.60;99.90;;;;;;5092581;28;20490;-80
2021/10/10 08:15:14;;;;;;;17.50;10.80;;;6.70;99.90;;;;;;5086208;28;20458;-76
2021/10/10 08:17:42;;;;;;;18.58;11.25;;;6.80;99.90;;;;;;5085864;28;20127;-78
2021/10/10 08:20:11;;;;;;;17.85;11.27;;;6.90;99.90;;;;;;5086465;28;20123;-79
2021/10/10 08:22:39;;;;;;;17.45;10.75;;;6.90;99.90;;;;;;5079137;28;20046;-78
2021/10/10 08:25:11;;;;;;;17.38;10.57;;;7.00;99.90;;;;;;5086203;28;20079;-78
2021/10/10 08:27:40;;;;;;;18.13;10.77;;;7.00;99.90;;;;;;5083188;28;20120;-78
2021/10/10 08:30:11;;;;;;;16.58;10.65;;;7.10;99.90;;;;;;5083318;28;20120;-79
2021/10/10 08:32:39;;;;;;;19.65;11.27;;;7.20;99.90;;;;;;5082004;28;20112;-83
2021/10/10 08:35:08;;;;;;;18.42;11.65;;;7.30;99.90;;;;;;5082625;28;20064;-79
2021/10/10 08:37:36;;;;;;;18.95;11.75;;;7.30;99.90;;;;;;5078818;28;20131;-79
2021/10/10 08:40:04;;;;;;;18.35;11.77;;;7.40;99.90;;;;;;5083564;28;20123;-80
2021/10/10 08:42:36;;;;;;;18.15;11.05;;;7.40;99.90;;;;;;5085228;28;20151;-82
2021/10/10 08:45:09;;;;;;;21.98;12.00;;;7.40;99.90;;;;;;5085574;28;20050;-80
2021/10/10 08:47:42;;;;;;;22.17;13.00;;;7.60;99.90;;;;;;5090555;28;20166;-79
2021/10/10 08:50:18;;;;;;;65.45;30.20;;;7.60;99.90;;;;;;5083252;28;20044;-77
2021/10/10 08:52:47;;;;;;;33.70;18.23;;;7.70;99.90;;;;;;5087532;28;20123;-82
2021/10/10 08:55:15;;;;;;;24.92;13.32;;;7.70;99.90;;;;;;5083365;28;20393;-81
2021/10/10 08:57:43;;;;;;;18.55;11.25;;;7.80;99.90;;;;;;5086434;28;20072;-82
2021/10/10 09:00:16;;;;;;;18.52;10.90;;;7.90;99.90;;;;;;5078717;28;20127;-80
2021/10/10 09:02:46;;;;;;;18.48;10.88;;;7.90;99.90;;;;;;5083296;28;20052;-81
2021/10/10 09:05:14;;;;;;;17.58;10.57;;;8.00;99.90;;;;;;5084852;28;20079;-81
2021/10/10 09:07:43;;;;;;;22.10;12.50;;;8.10;99.90;;;;;;5086152;28;20115;-81
2021/10/10 09:10:24;;;;;;;19.13;11.30;;;8.20;99.90;;;;;;5082745;28;20047;-78
2021/10/10 09:12:53;;;;;;;21.30;12.43;;;8.30;99.90;;;;;;5082584;28;20052;-82
2021/10/10 09:15:23;;;;;;;18.58;11.90;;;8.30;99.90;;;;;;5082857;28;20055;-80
2021/10/10 09:17:56;;;;;;;21.30;11.93;;;8.40;99.90;;;;;;5080657;28;20474;-81
2021/10/10 09:20:30;;;;;;;19.88;11.30;;;8.50;99.90;;;;;;5083929;28;20083;-83
2021/10/10 09:22:57;;;;;;;17.40;10.60;;;8.50;99.90;;;;;;5088935;28;20127;-82
2021/10/10 09:25:24;;;;;;;19.90;12.05;;;8.60;99.90;;;;;;5084879;28;20098;-82
2021/10/10 09:27:52;;;;;;;22.85;13.45;;;8.70;99.90;;;;;;5082750;28;20139;-81
2021/10/10 09:30:22;;;;;;;19.80;12.73;;;8.80;99.90;;;;;;5092328;28;20040;-81
2021/10/10 09:32:55;;;;;;;21.52;12.32;;;8.90;99.90;;;;;;5085210;28;20066;-80
2021/10/10 09:35:29;;;;;;;18.95;11.30;;;9.00;99.90;;;;;;5090958;28;20048;-79
2021/10/10 09:38:10;;;;;;;20.20;11.57;;;9.10;99.90;;;;;;5093741;28;20131;-81
2021/10/10 09:40:44;;;;;;;18.17;11.25;;;9.10;99.90;;;;;;5085095;28;20047;-78
2021/10/10 09:43:11;;;;;;;19.02;11.15;;;9.20;99.90;;;;;;5091190;28;20075;-83
2021/10/10 09:45:53;;;;;;;19.08;10.98;;;9.30;99.90;;;;;;5093633;28;20079;-80
2021/10/10 09:48:39;;;;;;;17.70;11.02;;;9.30;99.90;;;;;;5086370;28;20090;-82
2021/10/10 09:51:06;;;;;;;17.25;10.10;;;9.40;99.90;;;;;;5088843;28;20048;-80
2021/10/10 09:53:35;;;;;;;17.10;10.38;;;9.50;99.90;;;;;;5081422;28;20501;-78
2021/10/10 09:56:08;;;;;;;17.67;9.90;;;9.60;99.90;;;;;;5088215;28;20050;-79
2021/10/10 09:58:36;;;;;;;21.50;12.57;;;9.70;99.90;;;;;;5086008;28;20085;-80
2021/10/10 10:01:15;;;;;;;17.95;11.60;;;9.80;99.90;;;;;;5085762;28;20508;-78
2021/10/10 10:04:04;;;;;;;17.02;11.05;;;9.80;99.90;;;;;;5081875;28;20079;-78
2021/10/10 10:06:34;;;;;;;18.13;11.23;;;10.00;99.90;;;;;;5083648;28;20126;-81
2021/10/10 10:09:03;;;;;;;17.90;10.20;;;10.00;99.70;;;;;;5078554;28;20143;-79
2021/10/10 10:11:36;;;;;;;17.92;10.55;;;10.10;99.60;;;;;;5084155;28;20048;-79
2021/10/10 10:14:08;;;;;;;15.48;9.27;;;10.20;99.50;;;;;;5083732;28;20143;-79
2021/10/10 10:16:39;;;;;;;13.52;9.07;;;10.30;99.40;;;;;;5082563;28;20048;-79
2021/10/10 10:19:11;;;;;;;16.20;9.88;;;10.30;99.10;;;;;;5084310;28;20486;-79
2021/10/10 10:21:39;;;;;;;16.67;10.00;;;10.40;99.00;;;;;;5087054;28;20361;-80
2021/10/10 10:24:11;;;;;;;21.13;10.35;;;10.40;99.00;;;;;;5081601;28;20037;-81
2021/10/10 10:26:39;;;;;;;14.40;9.82;;;10.50;98.80;;;;;;5080821;28;20094;-80
2021/10/10 10:29:13;;;;;;;17.88;11.20;;;10.60;98.80;;;;;;5083171;28;20573;-78
2021/10/10 10:31:45;;;;;;;19.42;11.40;;;10.70;98.30;;;;;;5085004;28;20127;-84
2021/10/10 10:34:25;;;;;;;15.63;10.27;;;10.70;97.90;;;;;;5089372;28;20414;-80
2021/10/10 10:36:59;;;;;;;18.60;11.13;;;10.80;98.10;;;;;;5082664;28;20585;-79
2021/10/10 10:39:43;;;;;;;17.52;10.57;;;10.90;98.20;;;;;;5082802;28;20080;-79
2021/10/10 10:42:11;;;;;;;16.70;10.48;;;10.90;98.30;;;;;;5085018;28;20044;-80
2021/10/10 10:44:43;;;;;;;17.70;11.27;;;11.00;97.80;;;;;;5081606;28;20136;-79
2021/10/10 10:47:14;;;;;;;17.02;11.07;;;11.00;97.60;;;;;;5083599;28;20119;-80
2021/10/10 10:50:04;;;;;;;14.77;9.23;;;11.10;97.60;;;;;;5080626;28;20127;-80
2021/10/10 10:52:33;;;;;;;17.23;10.32;;;11.10;97.70;;;;;;5081436;28;20044;-81
2021/10/10 10:55:16;;;;;;;16.88;10.60;;;11.20;97.40;;;;;;5084445;28;20068;-80
2021/10/10 10:57:50;;;;;;;16.00;10.50;;;11.30;97.20;;;;;;5084971;28;20127;-81
2021/10/10 11:00:24;;;;;;;16.23;9.32;;;11.30;97.00;;;;;;5085324;28;20141;-80
2021/10/10 11:03:11;;;;;;;14.65;8.85;;;11.40;97.00;;;;;;5085363;28;20458;-80
2021/10/10 11:05:46;;;;;;;14.40;9.50;;;11.50;97.00;;;;;;5082836;28;20050;-78
2021/10/10 11:08:40;;;;;;;15.48;9.68;;;11.60;96.40;;;;;;5082781;28;20127;-79
2021/10/10 11:11:17;;;;;;;17.40;10.35;;;11.70;96.00;;;;;;5077186;28;20056;-77
2021/10/10 11:13:48;;;;;;;18.08;11.38;;;11.80;95.80;;;;;;5076949;28;20472;-78
2021/10/10 11:16:17;;;;;;;14.73;9.80;;;11.80;95.10;;;;;;5076795;28;20541;-78
2021/10/10 11:18:50;;;;;;;15.02;9.55;;;11.90;95.20;;;;;;5076592;28;20127;-81
2021/10/10 11:21:22;;;;;;;14.48;8.70;;;12.00;95.20;;;;;;5076304;28;20139;-80
2021/10/10 11:23:52;;;;;;;16.25;9.68;;;12.00;95.30;;;;;;5076569;28;20490;-78
2021/10/10 11:26:20;;;;;;;17.33;9.18;;;12.10;95.00;;;;;;5075376;28;20123;-79
2021/10/10 11:28:51;;;;;;;14.23;8.70;;;12.20;94.50;;;;;;5076402;28;20141;-80
2021/10/10 11:31:21;;;;;;;12.60;7.93;;;12.30;94.40;;;;;;5076213;28;20049;-79
2021/10/10 11:33:55;;;;;;;15.88;8.80;;;12.40;94.30;;;;;;5076223;28;20558;-79
2021/10/10 11:36:34;;;;;;;13.55;9.32;;;12.50;94.10;;;;;;5076558;28;20117;-79
2021/10/10 11:39:03;;;;;;;14.05;8.63;;;12.60;93.90;;;;;;5076256;28;20049;-80
2021/10/10 11:41:30;;;;;;;14.32;8.15;;;12.70;93.60;;;;;;5076259;28;20131;-80
2021/10/10 11:44:03;;;;;;;13.18;8.15;;;12.90;93.30;;;;;;5075920;28;20065;-80
2021/10/10 11:46:47;;;;;;;11.48;7.40;;;13.00;92.90;;;;;;5076277;28;20144;-80
2021/10/10 11:49:39;;;;;;;13.50;7.57;;;13.10;92.80;;;;;;5075957;28;20410;-79
2021/10/10 11:52:20;;;;;;;12.70;7.43;;;13.30;92.60;;;;;;5075982;28;20045;-79
2021/10/10 11:54:56;;;;;;;13.10;7.47;;;13.50;92.20;;;;;;5076077;28;20040;-79
2021/10/10 11:57:25;;;;;;;12.45;7.75;;;13.60;91.90;;;;;;5076172;28;20127;-79
2021/10/10 11:59:54;;;;;;;15.65;7.57;;;13.80;91.60;;;;;;5076125;28;20049;-81
2021/10/10 12:02:21;;;;;;;15.88;7.85;;;13.90;91.20;;;;;;5075886;28;20127;-79
2021/10/10 12:04:49;;;;;;;13.25;7.35;;;14.10;90.70;;;;;;5076551;28;20045;-79
2021/10/10 12:07:17;;;;;;;13.00;7.63;;;14.20;90.30;;;;;;5076506;28;20127;-79
2021/10/10 12:09:52;;;;;;;12.55;7.40;;;14.20;91.20;;;;;;5075853;28;20537;-78
2021/10/10 12:12:21;;;;;;;11.75;7.38;;;14.40;89.80;;;;;;5075692;28;20131;-78
2021/10/10 12:14:52;;;;;;;15.48;7.93;;;14.60;87.90;;;;;;5075949;28;20127;-79
2021/10/10 12:17:34;;;;;;;18.00;8.95;;;14.70;86.80;;;;;;5075042;28;20148;-79
2021/10/10 12:20:05;;;;;;;15.35;8.27;;;14.80;85.30;;;;;;5076069;28;20049;-79
2021/10/10 12:22:33;;;;;;;12.80;7.60;;;14.80;83.20;;;;;;5075835;28;20055;-79
2021/10/10 12:25:00;;;;;;;11.45;7.38;;;15.00;83.20;;;;;;5075480;28;20135;-81
2021/10/10 12:27:30;;;;;;;12.43;7.35;;;15.10;83.10;;;;;;5075481;28;20148;-77
2021/10/10 12:29:58;;;;;;;14.13;8.68;;;15.30;82.40;;;;;;5075438;28;20079;-79
2021/10/10 12:32:28;;;;;;;10.93;6.78;;;15.50;81.10;;;;;;5076117;28;20127;-79
2021/10/10 12:35:15;;;;;;;13.07;7.28;;;15.50;82.70;;;;;;5075965;28;20075;-79
2021/10/10 12:37:50;;;;;;;13.63;7.25;;;15.50;79.40;;;;;;5075370;28;20131;-76
2021/10/10 12:40:35;;;;;;;9.93;6.38;;;15.60;78.90;;;;;;5075307;28;20049;-79
2021/10/10 12:43:03;;;;;;;12.82;6.53;;;15.80;78.60;;;;;;5075244;28;20127;-78
2021/10/10 12:45:31;;;;;;;10.90;7.15;;;16.00;78.40;;;;;;5075336;28;20052;-79
2021/10/10 12:48:09;;;;;;;12.98;7.72;;;16.10;74.70;;;;;;5075034;28;20490;-79
2021/10/10 12:50:50;;;;;;;13.70;7.40;;;16.40;75.50;;;;;;5074926;28;20462;-79
2021/10/10 12:53:26;;;;;;;11.38;6.85;;;16.60;75.20;;;;;;5075169;28;20132;-79
2021/10/10 12:56:22;;;;;;;13.57;7.80;;;16.80;77.80;;;;;;5074915;28;20086;-80